Thailine 5 — 9WFF5 — position and weather

sailwx.info

Track history (hours):
 
Tides and Currents Weather Stations Pressure Air Temp Water Temp Dewpoint Dewpoint Depression Visibility Wind Speed Wind Dir Waves Ship Positions

Thailine 5

Last reported at 2016-Jul-29 09:13 UTC. Time now 2016-Aug-30 03:12 UTC.
Position N 34°01' E 134°54'.
Warning: this ship's position is 31 days out of date.

Length 98 m; draft 4.6 m.

Type: Cargo ship. MMSI: 533399000.

Date/timePositionNaut miles runAvg speedWind from/ knotsBaromVisibWave heightAir tempDewpointWater temp
2016-Jul-29 09:13N 34°01' E 134°54'6 8.8
2016-Jul-29 08:32N 34°07' E 134°56'9 9.4
2016-Jul-29 07:34N 34°15' E 134°59'7 7.3
2016-Jul-29 06:33N 34°22' E 135°01'9 8.6
2016-Jul-29 05:33N 34°27' E 135°10'9 9.2
2016-Jul-29 04:33N 34°32' E 135°20'4 3.0
2016-Jul-29 03:21N 34°31' E 135°24'0 0.0
2016-Jul-29 02:33N 34°31' E 135°24'0 0.0
2016-Jul-28 23:33N 34°31' E 135°24'0 0.0
2016-Jul-28 09:15N 34°31' E 135°24'0 0.0
2016-Jul-28 08:15N 34°31' E 135°24'0 0.0
2016-Jul-28 07:27N 34°31' E 135°24'0 0.0
2016-Jul-28 06:33N 34°31' E 135°24'0 0.0
2016-Jul-28 05:33N 34°31' E 135°24'0 0.0
2016-Jul-28 04:33N 34°31' E 135°24'0 0.0
2016-Jul-27 11:15N 34°31' E 135°24'0 0.0
2016-Jul-27 10:21N 34°31' E 135°24'0 0.0
2016-Jul-27 09:33N 34°31' E 135°24'0 0.0
2016-Jul-27 08:27N 34°31' E 135°24'0 0.0
2016-Jul-26 20:27N 34°31' E 135°24'0 0.0
2016-Jul-26 19:33N 34°31' E 135°24'0 0.0
2016-Jul-26 18:03N 34°31' E 135°24'0 0.0
2016-Jul-26 16:33N 34°31' E 135°24'0 0.0
2016-Jul-26 10:21N 34°31' E 135°24'0 0.0
2016-Jul-26 09:15N 34°31' E 135°24'1 0.3
2016-Jul-26 05:23N 34°32' E 135°24'2 1.9
2016-Jul-26 04:22N 34°34' E 135°22'0 0.0
2016-Jul-26 03:28N 34°34' E 135°22'0 0.0
2016-Jul-26 02:26N 34°34' E 135°22'0 0.0
2016-Jul-26 01:20N 34°34' E 135°22'0 0.0
2016-Jul-26 00:20N 34°34' E 135°22'0 0.1
2016-Jul-25 23:20N 34°34' E 135°22'0 0.1
2016-Jul-25 22:26N 34°34' E 135°22'0 0.0
2016-Jul-25 21:20N 34°34' E 135°22'0 0.0
2016-Jul-25 20:32N 34°34' E 135°22'0 0.0
2016-Jul-25 19:26N 34°34' E 135°22'0 0.0
2016-Jul-25 18:20N 34°34' E 135°22'0 0.1
2016-Jul-25 17:32N 34°34' E 135°22'0 0.0
2016-Jul-25 16:26N 34°34' E 135°22'0 0.1
2016-Jul-25 15:26N 34°34' E 135°22'0 0.0
2016-Jul-25 14:32N 34°34' E 135°22'0 0.0
2016-Jul-25 13:32N 34°34' E 135°22'0 0.0
2016-Jul-25 12:32N 34°34' E 135°22'0 0.0
2016-Jul-25 11:26N 34°34' E 135°22'0 0.0
2016-Jul-25 10:26N 34°34' E 135°22'0 0.0
2016-Jul-25 09:32N 34°34' E 135°22'0 0.0
2016-Jul-25 08:32N 34°34' E 135°22'0 0.0
2016-Jul-25 07:20N 34°34' E 135°22'0 0.0
2016-Jul-25 06:32N 34°34' E 135°22'0 0.0
2016-Jul-25 05:20N 34°34' E 135°22'0 0.0
2016-Jul-25 04:08N 34°34' E 135°22'0 0.0
2016-Jul-25 03:32N 34°34' E 135°22'0 0.0
2016-Jul-25 02:26N 34°34' E 135°22'0 0.0
2016-Jul-24 23:26N 34°34' E 135°22'0 0.1
2016-Jul-24 22:26N 34°34' E 135°22'4 5.0
2016-Jul-24 21:33N 34°33' E 135°17'0 0.4
2016-Jul-24 20:33N 34°33' E 135°17'0 0.4
2016-Jul-24 19:32N 34°33' E 135°17'3 3.2
2016-Jul-24 18:33N 34°30' E 135°15'10 9.9
2016-Jul-24 17:33N 34°24' E 135°06'10 9.6
2016-Jul-24 16:33N 34°16' E 134°59'1110.8
2016-Jul-24 15:33N 34°05' E 134°59'227 8.6
2016-Jul-23 13:15N 34°59' E 139°27'1010.3
2016-Jul-23 12:19N 35°04' E 139°37'810.0
2016-Jul-23 11:32N 35°09' E 139°44'9 9.4
2016-Jul-23 10:33N 35°18' E 139°44'9 8.8
2016-Jul-23 09:33N 35°27' E 139°47'1010.1
2016-Jul-23 08:33N 35°32' E 139°58'8 7.4
2016-Jul-23 07:32N 35°37' E 140°05'0 0.0
2016-Jul-23 06:32N 35°37' E 140°05'0 0.0
2016-Jul-23 04:26N 35°37' E 140°05'0 0.0
2016-Jul-23 03:32N 35°37' E 140°05'0 0.0
2016-Jul-23 02:32N 35°37' E 140°05'0 0.0
2016-Jul-23 01:32N 35°37' E 140°05'0 0.0
2016-Jul-22 23:32N 35°37' E 140°05'0 0.2
2016-Jul-22 22:32N 35°36' E 140°05'4 3.6
2016-Jul-22 21:32N 35°35' E 140°01'0 0.0
2016-Jul-22 20:20N 35°35' E 140°01'0 0.1
2016-Jul-22 19:29N 35°35' E 140°01'0 0.0
2016-Jul-22 18:23N 35°35' E 140°01'0 0.0
2016-Jul-22 17:23N 35°35' E 140°01'0 0.0
2016-Jul-22 16:11N 35°35' E 140°01'0 0.0
2016-Jul-22 15:23N 35°35' E 140°01'0 0.0
2016-Jul-22 14:29N 35°35' E 140°01'0 0.0
2016-Jul-22 13:32N 35°35' E 140°01'0 0.0
2016-Jul-22 12:32N 35°35' E 140°01'0 0.0
2016-Jul-22 11:29N 35°35' E 140°01'0 0.0
2016-Jul-22 10:23N 35°35' E 140°01'0 0.0
2016-Jul-22 09:29N 35°35' E 140°01'0 0.0
2016-Jul-22 08:17N 35°35' E 140°01'0 0.0
2016-Jul-22 07:29N 35°35' E 140°01'0 0.0
2016-Jul-22 04:29N 35°35' E 140°01'0 0.0
2016-Jul-22 03:29N 35°35' E 140°01'0 0.0
2016-Jul-22 02:23N 35°35' E 140°01'0 0.0
2016-Jul-22 01:23N 35°35' E 140°01'0 0.0
2016-Jul-22 00:11N 35°35' E 140°01'0 0.0
2016-Jul-21 23:29N 35°35' E 140°01'0 0.0
2016-Jul-21 22:29N 35°35' E 140°01'0 0.0
2016-Jul-21 21:29N 35°35' E 140°01'0 0.0
2016-Jul-21 20:32N 35°35' E 140°01'0 0.0
2016-Jul-21 19:29N 35°35' E 140°01'0 0.0
2016-Jul-21 18:23N 35°35' E 140°01'0 0.0
2016-Jul-21 17:29N 35°35' E 140°01'0 0.0
2016-Jul-21 16:32N 35°35' E 140°01'0 0.0
2016-Jul-21 15:29N 35°35' E 140°01'0 0.0
2016-Jul-21 14:32N 35°35' E 140°01'0 0.0
2016-Jul-21 13:23N 35°35' E 140°01'0 0.0
2016-Jul-21 12:23N 35°35' E 140°01'0 0.1
2016-Jul-21 11:32N 35°35' E 140°01'0 0.0
2016-Jul-21 10:32N 35°35' E 140°01'0 0.0
2016-Jul-21 09:32N 35°35' E 140°01'0 0.0
2016-Jul-21 08:29N 35°35' E 140°01'0 0.0
2016-Jul-21 07:17N 35°35' E 140°01'0 0.0
2016-Jul-21 06:29N 35°35' E 140°01'0 0.0
2016-Jul-21 04:29N 35°35' E 140°01'0 0.0
2016-Jul-21 03:26N 35°35' E 140°01'0 0.0
2016-Jul-21 02:32N 35°35' E 140°01'0 0.0
2016-Jul-21 01:29N 35°35' E 140°01'0 0.0
2016-Jul-21 00:29N 35°35' E 140°01'0 0.0
2016-Jul-20 23:29N 35°35' E 140°01'0 0.0
2016-Jul-20 22:17N 35°35' E 140°01'0 0.0
2016-Jul-20 21:29N 35°35' E 140°01'0 0.0
2016-Jul-20 20:29N 35°35' E 140°01'0 0.0
2016-Jul-20 19:29N 35°35' E 140°01'0 0.0
2016-Jul-20 18:29N 35°35' E 140°01'0 0.0
2016-Jul-20 17:29N 35°35' E 140°01'0 0.0
2016-Jul-20 16:23N 35°35' E 140°01'0 0.0
2016-Jul-20 15:29N 35°35' E 140°01'0 0.0
2016-Jul-20 12:23N 35°35' E 140°01'0 0.0
2016-Jul-20 11:29N 35°35' E 140°01'0 0.0
2016-Jul-20 10:29N 35°35' E 140°01'0 0.0
2016-Jul-20 09:29N 35°35' E 140°01'0 0.0
2016-Jul-20 08:29N 35°35' E 140°01'0 0.0
2016-Jul-20 07:29N 35°35' E 140°01'1 0.7
2016-Jul-20 05:32N 35°34' E 139°60'8 8.2
2016-Jul-20 04:33N 35°29' E 139°52'9 9.2
2016-Jul-20 03:33N 35°22' E 139°45'9 8.8
2016-Jul-20 02:33N 35°13' E 139°47'9 9.2
2016-Jul-20 01:33N 35°04' E 139°46'15 7.1
2016-Jul-19 23:29N 34°52' E 139°57'9 9.8
2016-Jul-19 22:33N 34°56' E 140°07'10 9.8
2016-Jul-19 21:33N 34°60' E 140°17'10 9.4
2016-Jul-19 20:30N 35°05' E 140°28'9 9.4
2016-Jul-19 19:33N 35°11' E 140°35'9 8.8
2016-Jul-19 18:33N 35°19' E 140°40'5 1.0
2016-Jul-19 13:19N 35°24' E 140°40'0 0.1
2016-Jul-19 12:23N 35°24' E 140°40'  
Track history (hours):
 
Tides and Currents Weather Stations Pressure Air Temp Water Temp Dewpoint Dewpoint Depression Visibility Wind Speed Wind Dir Waves Ship Positions

Thailine 5

Last reported at 2016-Jul-29 09:13 UTC. Time now 2016-Aug-30 03:12 UTC.
Position N 34°01' E 134°54'.
Warning: this ship's position is 31 days out of date.

Length 98 m; draft 4.6 m.

Type: Cargo ship. MMSI: 533399000.

Date/timePositionNaut miles runAvg speedWind from/ knotsBaromVisibWave heightAir tempDewpointWater temp
2016-Jul-29 09:13N 34°01' E 134°54'6 8.8
2016-Jul-29 08:32N 34°07' E 134°56'9 9.4
2016-Jul-29 07:34N 34°15' E 134°59'7 7.3
2016-Jul-29 06:33N 34°22' E 135°01'9 8.6
2016-Jul-29 05:33N 34°27' E 135°10'9 9.2
2016-Jul-29 04:33N 34°32' E 135°20'4 3.0
2016-Jul-29 03:21N 34°31' E 135°24'0 0.0
2016-Jul-29 02:33N 34°31' E 135°24'0 0.0
2016-Jul-28 23:33N 34°31' E 135°24'0 0.0
2016-Jul-28 09:15N 34°31' E 135°24'0 0.0
2016-Jul-28 08:15N 34°31' E 135°24'0 0.0
2016-Jul-28 07:27N 34°31' E 135°24'0 0.0
2016-Jul-28 06:33N 34°31' E 135°24'0 0.0
2016-Jul-28 05:33N 34°31' E 135°24'0 0.0
2016-Jul-28 04:33N 34°31' E 135°24'0 0.0
2016-Jul-27 11:15N 34°31' E 135°24'0 0.0
2016-Jul-27 10:21N 34°31' E 135°24'0 0.0
2016-Jul-27 09:33N 34°31' E 135°24'0 0.0
2016-Jul-27 08:27N 34°31' E 135°24'0 0.0
2016-Jul-26 20:27N 34°31' E 135°24'0 0.0
2016-Jul-26 19:33N 34°31' E 135°24'0 0.0
2016-Jul-26 18:03N 34°31' E 135°24'0 0.0
2016-Jul-26 16:33N 34°31' E 135°24'0 0.0
2016-Jul-26 10:21N 34°31' E 135°24'0 0.0
2016-Jul-26 09:15N 34°31' E 135°24'1 0.3
2016-Jul-26 05:23N 34°32' E 135°24'2 1.9
2016-Jul-26 04:22N 34°34' E 135°22'0 0.0
2016-Jul-26 03:28N 34°34' E 135°22'0 0.0
2016-Jul-26 02:26N 34°34' E 135°22'0 0.0
2016-Jul-26 01:20N 34°34' E 135°22'0 0.0
2016-Jul-26 00:20N 34°34' E 135°22'0 0.1
2016-Jul-25 23:20N 34°34' E 135°22'0 0.1
2016-Jul-25 22:26N 34°34' E 135°22'0 0.0
2016-Jul-25 21:20N 34°34' E 135°22'0 0.0
2016-Jul-25 20:32N 34°34' E 135°22'0 0.0
2016-Jul-25 19:26N 34°34' E 135°22'0 0.0
2016-Jul-25 18:20N 34°34' E 135°22'0 0.1
2016-Jul-25 17:32N 34°34' E 135°22'0 0.0
2016-Jul-25 16:26N 34°34' E 135°22'0 0.1
2016-Jul-25 15:26N 34°34' E 135°22'0 0.0
2016-Jul-25 14:32N 34°34' E 135°22'0 0.0
2016-Jul-25 13:32N 34°34' E 135°22'0 0.0
2016-Jul-25 12:32N 34°34' E 135°22'0 0.0
2016-Jul-25 11:26N 34°34' E 135°22'0 0.0
2016-Jul-25 10:26N 34°34' E 135°22'0 0.0
2016-Jul-25 09:32N 34°34' E 135°22'0 0.0
2016-Jul-25 08:32N 34°34' E 135°22'0 0.0
2016-Jul-25 07:20N 34°34' E 135°22'0 0.0
2016-Jul-25 06:32N 34°34' E 135°22'0 0.0
2016-Jul-25 05:20N 34°34' E 135°22'0 0.0
2016-Jul-25 04:08N 34°34' E 135°22'0 0.0
2016-Jul-25 03:32N 34°34' E 135°22'0 0.0
2016-Jul-25 02:26N 34°34' E 135°22'0 0.0
2016-Jul-24 23:26N 34°34' E 135°22'0 0.1
2016-Jul-24 22:26N 34°34' E 135°22'4 5.0
2016-Jul-24 21:33N 34°33' E 135°17'0 0.4
2016-Jul-24 20:33N 34°33' E 135°17'0 0.4
2016-Jul-24 19:32N 34°33' E 135°17'3 3.2
2016-Jul-24 18:33N 34°30' E 135°15'10 9.9
2016-Jul-24 17:33N 34°24' E 135°06'10 9.6
2016-Jul-24 16:33N 34°16' E 134°59'1110.8
2016-Jul-24 15:33N 34°05' E 134°59'227 8.6
2016-Jul-23 13:15N 34°59' E 139°27'1010.3
2016-Jul-23 12:19N 35°04' E 139°37'810.0
2016-Jul-23 11:32N 35°09' E 139°44'9 9.4
2016-Jul-23 10:33N 35°18' E 139°44'9 8.8
2016-Jul-23 09:33N 35°27' E 139°47'1010.1
2016-Jul-23 08:33N 35°32' E 139°58'8 7.4
2016-Jul-23 07:32N 35°37' E 140°05'0 0.0
2016-Jul-23 06:32N 35°37' E 140°05'0 0.0
2016-Jul-23 04:26N 35°37' E 140°05'0 0.0
2016-Jul-23 03:32N 35°37' E 140°05'0 0.0
2016-Jul-23 02:32N 35°37' E 140°05'0 0.0
2016-Jul-23 01:32N 35°37' E 140°05'0 0.0
2016-Jul-22 23:32N 35°37' E 140°05'0 0.2
2016-Jul-22 22:32N 35°36' E 140°05'4 3.6
2016-Jul-22 21:32N 35°35' E 140°01'0 0.0
2016-Jul-22 20:20N 35°35' E 140°01'0 0.1
2016-Jul-22 19:29N 35°35' E 140°01'0 0.0
2016-Jul-22 18:23N 35°35' E 140°01'0 0.0
2016-Jul-22 17:23N 35°35' E 140°01'0 0.0
2016-Jul-22 16:11N 35°35' E 140°01'0 0.0
2016-Jul-22 15:23N 35°35' E 140°01'0 0.0
2016-Jul-22 14:29N 35°35' E 140°01'0 0.0
2016-Jul-22 13:32N 35°35' E 140°01'0 0.0
2016-Jul-22 12:32N 35°35' E 140°01'0 0.0
2016-Jul-22 11:29N 35°35' E 140°01'0 0.0
2016-Jul-22 10:23N 35°35' E 140°01'0 0.0
2016-Jul-22 09:29N 35°35' E 140°01'0 0.0
2016-Jul-22 08:17N 35°35' E 140°01'0 0.0
2016-Jul-22 07:29N 35°35' E 140°01'0 0.0
2016-Jul-22 04:29N 35°35' E 140°01'0 0.0
2016-Jul-22 03:29N 35°35' E 140°01'0 0.0
2016-Jul-22 02:23N 35°35' E 140°01'0 0.0
2016-Jul-22 01:23N 35°35' E 140°01'0 0.0
2016-Jul-22 00:11N 35°35' E 140°01'0 0.0
2016-Jul-21 23:29N 35°35' E 140°01'0 0.0
2016-Jul-21 22:29N 35°35' E 140°01'0 0.0
2016-Jul-21 21:29N 35°35' E 140°01'0 0.0
2016-Jul-21 20:32N 35°35' E 140°01'0 0.0
2016-Jul-21 19:29N 35°35' E 140°01'0 0.0
2016-Jul-21 18:23N 35°35' E 140°01'0 0.0
2016-Jul-21 17:29N 35°35' E 140°01'0 0.0
2016-Jul-21 16:32N 35°35' E 140°01'0 0.0
2016-Jul-21 15:29N 35°35' E 140°01'0 0.0
2016-Jul-21 14:32N 35°35' E 140°01'0 0.0
2016-Jul-21 13:23N 35°35' E 140°01'0 0.0
2016-Jul-21 12:23N 35°35' E 140°01'0 0.1
2016-Jul-21 11:32N 35°35' E 140°01'0 0.0
2016-Jul-21 10:32N 35°35' E 140°01'0 0.0
2016-Jul-21 09:32N 35°35' E 140°01'0 0.0
2016-Jul-21 08:29N 35°35' E 140°01'0 0.0
2016-Jul-21 07:17N 35°35' E 140°01'0 0.0
2016-Jul-21 06:29N 35°35' E 140°01'0 0.0
2016-Jul-21 04:29N 35°35' E 140°01'0 0.0
2016-Jul-21 03:26N 35°35' E 140°01'0 0.0
2016-Jul-21 02:32N 35°35' E 140°01'0 0.0
2016-Jul-21 01:29N 35°35' E 140°01'0 0.0
2016-Jul-21 00:29N 35°35' E 140°01'0 0.0
2016-Jul-20 23:29N 35°35' E 140°01'0 0.0
2016-Jul-20 22:17N 35°35' E 140°01'0 0.0
2016-Jul-20 21:29N 35°35' E 140°01'0 0.0
2016-Jul-20 20:29N 35°35' E 140°01'0 0.0
2016-Jul-20 19:29N 35°35' E 140°01'0 0.0
2016-Jul-20 18:29N 35°35' E 140°01'0 0.0
2016-Jul-20 17:29N 35°35' E 140°01'0 0.0
2016-Jul-20 16:23N 35°35' E 140°01'0 0.0
2016-Jul-20 15:29N 35°35' E 140°01'0 0.0
2016-Jul-20 12:23N 35°35' E 140°01'0 0.0
2016-Jul-20 11:29N 35°35' E 140°01'0 0.0
2016-Jul-20 10:29N 35°35' E 140°01'0 0.0
2016-Jul-20 09:29N 35°35' E 140°01'0 0.0
2016-Jul-20 08:29N 35°35' E 140°01'0 0.0
2016-Jul-20 07:29N 35°35' E 140°01'1 0.7
2016-Jul-20 05:32N 35°34' E 139°60'8 8.2
2016-Jul-20 04:33N 35°29' E 139°52'9 9.2
2016-Jul-20 03:33N 35°22' E 139°45'9 8.8
2016-Jul-20 02:33N 35°13' E 139°47'9 9.2
2016-Jul-20 01:33N 35°04' E 139°46'15 7.1
2016-Jul-19 23:29N 34°52' E 139°57'9 9.8
2016-Jul-19 22:33N 34°56' E 140°07'10 9.8
2016-Jul-19 21:33N 34°60' E 140°17'10 9.4
2016-Jul-19 20:30N 35°05' E 140°28'9 9.4
2016-Jul-19 19:33N 35°11' E 140°35'9 8.8
2016-Jul-19 18:33N 35°19' E 140°40'5 1.0
2016-Jul-19 13:19N 35°24' E 140°40'0 0.1
2016-Jul-19 12:23N 35°24' E 140°40'  

Dump ship's entire track history